createdAt,value
2023-02-19T00:00:10.995Z,6.59
2023-02-19T00:02:37.575Z,6.66
2023-02-19T00:05:04.135Z,6.72
2023-02-19T00:07:30.590Z,6.77
2023-02-19T00:09:57.014Z,6.72
2023-02-19T00:12:23.396Z,6.76
2023-02-19T00:14:49.798Z,6.75
2023-02-19T00:17:16.280Z,6.69
2023-02-19T00:19:42.774Z,6.63
2023-02-19T00:22:09.400Z,6.61
2023-02-19T00:24:35.842Z,6.59
2023-02-19T00:27:02.373Z,6.57
2023-02-19T00:29:29.040Z,6.57
2023-02-19T00:31:55.594Z,6.57
2023-02-19T00:34:22.153Z,6.53
2023-02-19T00:36:48.570Z,6.62
2023-02-19T00:39:15.976Z,6.62
2023-02-19T00:41:42.694Z,6.68
2023-02-19T00:44:10.003Z,6.65
2023-02-19T00:46:46.310Z,6.58
2023-02-19T00:49:19.664Z,6.61
2023-02-19T00:51:46.315Z,6.50
2023-02-19T00:54:12.849Z,6.59
2023-02-19T00:56:39.568Z,6.44
2023-02-19T00:59:06.098Z,6.50
2023-02-19T01:01:32.635Z,6.43
2023-02-19T01:03:59.056Z,6.48
2023-02-19T01:06:25.592Z,6.42
2023-02-19T01:08:51.985Z,6.46
2023-02-19T01:11:18.420Z,6.44
2023-02-19T01:13:44.884Z,6.44
2023-02-19T01:16:15.225Z,6.42
2023-02-19T01:18:41.929Z,6.40
2023-02-19T01:21:09.444Z,6.39
2023-02-19T01:23:36.249Z,6.39
2023-02-19T01:26:06.164Z,6.40
2023-02-19T01:28:32.925Z,6.44
2023-02-19T01:31:02.940Z,6.52
2023-02-19T01:33:29.523Z,6.45
2023-02-19T01:35:55.912Z,6.47
2023-02-19T01:38:22.314Z,6.45
2023-02-19T01:40:58.801Z,6.47
2023-02-19T01:43:25.269Z,6.51
2023-02-19T01:45:52.931Z,6.47
2023-02-19T01:48:38.194Z,6.43
2023-02-19T01:51:14.963Z,6.45
2023-02-19T01:53:42.324Z,6.44
2023-02-19T01:56:08.838Z,6.41
2023-02-19T01:58:35.430Z,6.42
2023-02-19T02:01:03.139Z,6.38
2023-02-19T02:03:29.682Z,6.42
2023-02-19T02:05:57.420Z,6.35
2023-02-19T02:08:23.915Z,6.41
2023-02-19T02:10:50.463Z,6.37
2023-02-19T02:13:16.859Z,6.31
2023-02-19T02:15:46.410Z,6.32
2023-02-19T02:18:18.754Z,6.34
2023-02-19T02:20:45.126Z,6.35
2023-02-19T02:23:35.471Z,6.36
2023-02-19T02:26:20.698Z,6.32
2023-02-19T02:28:50.305Z,6.32
2023-02-19T02:31:17.359Z,6.38
2023-02-19T02:33:46.974Z,6.38
2023-02-19T02:36:17.495Z,6.34
2023-02-19T02:38:44.293Z,6.34
2023-02-19T02:41:11.090Z,6.33
2023-02-19T02:43:37.808Z,6.33
2023-02-19T02:46:04.271Z,6.35
2023-02-19T02:48:39.434Z,6.29
2023-02-19T02:51:10.546Z,6.25
2023-02-19T02:53:39.469Z,6.29
2023-02-19T02:56:05.891Z,6.31
2023-02-19T02:58:32.337Z,6.26
2023-02-19T03:01:19.290Z,6.27
2023-02-19T03:03:45.986Z,6.22
2023-02-19T03:06:12.491Z,6.22
2023-02-19T03:08:50.224Z,6.29
2023-02-19T03:11:16.760Z,6.16
2023-02-19T03:13:43.441Z,6.19
2023-02-19T03:16:17.614Z,6.19
2023-02-19T03:18:44.587Z,6.25
2023-02-19T03:21:11.405Z,6.18
2023-02-19T03:23:38.272Z,6.14
2023-02-19T03:26:04.796Z,6.16
2023-02-19T03:28:32.590Z,6.23
2023-02-19T03:30:59.051Z,6.19
2023-02-19T03:33:26.578Z,6.18
2023-02-19T03:35:53.932Z,6.21
2023-02-19T03:38:21.518Z,6.16
2023-02-19T03:40:51.501Z,6.14
2023-02-19T03:43:19.278Z,6.14
2023-02-19T03:46:04.575Z,6.09
2023-02-19T03:48:31.065Z,6.12
2023-02-19T03:51:00.167Z,6.11
2023-02-19T03:53:34.679Z,6.06
2023-02-19T03:56:01.044Z,6.13
2023-02-19T03:58:32.743Z,6.08
2023-02-19T04:01:06.803Z,6.06
2023-02-19T04:03:51.968Z,6.09
2023-02-19T04:06:20.902Z,6.11
2023-02-19T04:08:49.624Z,6.16
2023-02-19T04:11:16.114Z,6.09
2023-02-19T04:14:02.844Z,6.04
2023-02-19T04:16:29.416Z,6.06
2023-02-19T04:19:14.865Z,6.03
2023-02-19T04:21:41.252Z,6.04
2023-02-19T04:24:09.916Z,6.00
2023-02-19T04:26:36.389Z,6.02
2023-02-19T04:29:02.909Z,5.99
2023-02-19T04:31:29.867Z,6.02
2023-02-19T04:33:56.564Z,5.97
2023-02-19T04:36:23.001Z,5.98
2023-02-19T04:38:49.422Z,5.99
2023-02-19T04:41:15.777Z,6.07
2023-02-19T04:43:42.294Z,5.96
2023-02-19T04:46:08.802Z,6.01
2023-02-19T04:48:35.359Z,6.01
2023-02-19T04:51:04.955Z,6.00
2023-02-19T04:53:31.430Z,5.98
2023-02-19T04:55:57.947Z,6.02
2023-02-19T04:58:24.369Z,6.04
2023-02-19T05:00:53.946Z,6.03
2023-02-19T05:03:20.359Z,6.04
2023-02-19T05:05:46.801Z,6.07
2023-02-19T05:08:13.237Z,5.99
2023-02-19T05:10:39.696Z,6.00
2023-02-19T05:13:06.068Z,5.97
2023-02-19T05:15:32.645Z,6.00
2023-02-19T05:17:59.085Z,6.01
2023-02-19T05:20:25.473Z,5.99
2023-02-19T05:22:51.981Z,6.08
2023-02-19T05:25:18.473Z,6.02
2023-02-19T05:27:45.051Z,6.03
2023-02-19T05:30:11.644Z,6.02
2023-02-19T05:32:38.119Z,6.00
2023-02-19T05:35:04.652Z,5.98
2023-02-19T05:37:31.065Z,5.95
2023-02-19T05:39:57.569Z,6.02
2023-02-19T05:42:24.112Z,5.99
2023-02-19T05:44:50.604Z,6.00
2023-02-19T05:47:17.014Z,6.03
2023-02-19T05:49:43.626Z,6.05
2023-02-19T05:52:10.114Z,6.00
2023-02-19T05:54:36.651Z,6.00
2023-02-19T05:57:03.062Z,5.96
2023-02-19T05:59:29.486Z,5.91
2023-02-19T06:01:55.875Z,5.98
2023-02-19T06:04:22.338Z,6.04
2023-02-19T06:06:49.096Z,5.94
2023-02-19T06:09:15.679Z,5.96
2023-02-19T06:11:42.102Z,5.98
2023-02-19T06:14:08.516Z,6.02
2023-02-19T06:16:34.983Z,5.95
2023-02-19T06:19:04.634Z,5.97
2023-02-19T06:21:31.121Z,5.93
2023-02-19T06:23:57.552Z,5.91
2023-02-19T06:26:24.240Z,5.92
2023-02-19T06:28:50.918Z,5.90
2023-02-19T06:31:17.647Z,5.95
2023-02-19T06:33:44.531Z,5.95
2023-02-19T06:36:14.770Z,5.92
2023-02-19T06:38:41.541Z,5.91
2023-02-19T06:41:08.296Z,5.91
2023-02-19T06:43:34.870Z,5.85
2023-02-19T06:46:02.042Z,5.87
2023-02-19T06:48:28.677Z,5.88
2023-02-19T06:50:55.189Z,5.84
2023-02-19T06:53:22.341Z,5.84
2023-02-19T06:55:58.580Z,5.95
2023-02-19T06:58:25.223Z,5.90
2023-02-19T07:00:51.879Z,5.98
2023-02-19T07:03:18.339Z,5.89
2023-02-19T07:05:44.741Z,5.95
2023-02-19T07:08:11.162Z,5.90
2023-02-19T07:10:37.598Z,5.85
2023-02-19T07:13:04.021Z,5.76
2023-02-19T07:15:30.671Z,5.83
2023-02-19T07:17:57.082Z,5.72
2023-02-19T07:20:23.616Z,5.74
2023-02-19T07:22:50.222Z,5.63
2023-02-19T07:25:16.908Z,5.64
2023-02-19T07:27:43.481Z,5.71
2023-02-19T07:30:10.494Z,5.83
2023-02-19T07:32:40.413Z,5.89
2023-02-19T07:35:07.309Z,5.94
2023-02-19T07:37:33.794Z,5.90
2023-02-19T07:40:00.235Z,6.07
2023-02-19T07:42:26.782Z,6.07
2023-02-19T07:44:53.441Z,6.10
2023-02-19T07:47:19.946Z,6.27
2023-02-19T07:49:46.376Z,6.42
2023-02-19T07:52:12.750Z,6.36
2023-02-19T07:54:39.260Z,6.42
2023-02-19T07:57:05.786Z,6.29
2023-02-19T07:59:32.266Z,6.26
2023-02-19T08:01:58.748Z,6.30
2023-02-19T08:04:25.284Z,6.42
2023-02-19T08:06:52.525Z,6.21
2023-02-19T08:09:19.099Z,6.18
2023-02-19T08:11:45.628Z,6.18
2023-02-19T08:14:12.037Z,6.12
2023-02-19T08:16:43.327Z,6.05
2023-02-19T08:19:10.036Z,6.03
2023-02-19T08:21:36.479Z,6.10
2023-02-19T08:24:02.990Z,6.07
2023-02-19T08:26:29.438Z,6.16
2023-02-19T08:28:55.969Z,6.26
2023-02-19T08:31:22.546Z,6.44
2023-02-19T08:33:49.095Z,6.39
2023-02-19T08:36:15.514Z,6.45
2023-02-19T08:38:41.906Z,6.44
2023-02-19T08:41:09.656Z,6.39
2023-02-19T08:43:36.508Z,6.31
2023-02-19T08:46:03.113Z,6.31
2023-02-19T08:48:29.711Z,6.39
2023-02-19T08:50:56.871Z,6.48
2023-02-19T08:53:23.419Z,6.58
2023-02-19T08:55:50.094Z,6.58
2023-02-19T08:58:16.662Z,6.61
2023-02-19T09:00:43.077Z,6.96
2023-02-19T09:03:09.590Z,7.25
2023-02-19T09:05:36.093Z,7.73
2023-02-19T09:08:02.568Z,7.83
2023-02-19T09:10:28.953Z,7.61
2023-02-19T09:12:55.503Z,7.30
2023-02-19T09:15:22.018Z,7.09
2023-02-19T09:17:52.130Z,7.20
2023-02-19T09:20:18.931Z,7.67
2023-02-19T09:22:45.534Z,7.62
2023-02-19T09:25:12.086Z,7.38
2023-02-19T09:27:38.664Z,7.18
2023-02-19T09:30:05.905Z,7.01
2023-02-19T09:32:32.630Z,6.88
2023-02-19T09:34:59.069Z,6.79
2023-02-19T09:37:28.712Z,6.70
2023-02-19T09:39:55.183Z,6.75
2023-02-19T09:42:22.748Z,6.98
2023-02-19T09:44:49.926Z,7.00
2023-02-19T09:47:17.532Z,7.09
2023-02-19T09:49:44.480Z,7.14
2023-02-19T09:52:30.258Z,7.13
2023-02-19T09:54:57.349Z,7.08
2023-02-19T09:57:23.749Z,7.05
2023-02-19T09:59:53.978Z,7.03
2023-02-19T10:02:24.030Z,6.86
2023-02-19T10:04:50.637Z,6.78
2023-02-19T10:07:18.488Z,6.81
2023-02-19T10:10:02.013Z,6.83
2023-02-19T10:12:29.456Z,6.89
2023-02-19T10:14:58.587Z,6.90
2023-02-19T10:17:25.853Z,6.82
2023-02-19T10:19:52.433Z,6.82
2023-02-19T10:22:19.376Z,6.64
2023-02-19T10:24:45.928Z,6.64
2023-02-19T10:27:13.190Z,6.60
2023-02-19T10:29:39.617Z,6.68
2023-02-19T10:32:18.417Z,6.52
2023-02-19T10:34:44.944Z,6.62
2023-02-19T10:37:13.395Z,6.58
2023-02-19T10:39:41.328Z,6.58
2023-02-19T10:42:14.113Z,6.61
2023-02-19T10:44:42.503Z,6.57
2023-02-19T10:47:08.874Z,6.56
2023-02-19T10:49:36.001Z,6.60
2023-02-19T10:52:03.233Z,6.47
2023-02-19T10:54:30.382Z,6.45
2023-02-19T10:57:17.028Z,6.49
2023-02-19T11:00:02.757Z,6.53
2023-02-19T11:02:29.616Z,6.57
2023-02-19T11:05:03.646Z,6.67
2023-02-19T11:07:30.062Z,6.76
2023-02-19T11:09:56.574Z,6.76
2023-02-19T11:12:26.938Z,6.80
2023-02-19T11:14:53.432Z,6.72
2023-02-19T11:17:27.188Z,6.65
2023-02-19T11:19:54.120Z,6.71
2023-02-19T11:22:27.067Z,6.72
2023-02-19T11:24:57.259Z,6.70
2023-02-19T11:27:24.607Z,6.82
2023-02-19T11:29:51.048Z,6.93
2023-02-19T11:32:20.812Z,6.97
2023-02-19T11:34:47.585Z,7.01
2023-02-19T11:37:17.204Z,7.06
2023-02-19T11:39:44.443Z,7.27
2023-02-19T11:42:29.807Z,7.31
2023-02-19T11:45:04.728Z,7.25
2023-02-19T11:47:50.028Z,7.08
2023-02-19T11:50:35.176Z,7.07
2023-02-19T11:53:12.246Z,7.06
2023-02-19T11:55:38.895Z,7.14
2023-02-19T11:58:08.297Z,7.13
2023-02-19T12:00:36.432Z,7.13
2023-02-19T12:03:38.537Z,7.17
2023-02-19T12:06:31.264Z,7.27
2023-02-19T12:08:57.734Z,7.29
2023-02-19T12:11:50.648Z,7.22
2023-02-19T12:14:17.065Z,7.32
2023-02-19T12:16:54.973Z,7.34
2023-02-19T12:19:27.624Z,7.30
2023-02-19T12:22:05.883Z,7.16
2023-02-19T12:24:32.598Z,7.19
2023-02-19T12:27:01.926Z,7.27
2023-02-19T12:29:43.507Z,7.22
2023-02-19T12:32:15.874Z,7.10
2023-02-19T12:34:42.311Z,7.20
2023-02-19T12:37:24.128Z,7.17
2023-02-19T12:39:50.549Z,7.17
2023-02-19T12:42:16.957Z,7.22
2023-02-19T12:44:47.620Z,7.28
2023-02-19T12:47:21.429Z,7.28
2023-02-19T12:49:54.595Z,7.18
2023-02-19T12:52:25.671Z,7.32
2023-02-19T12:54:55.661Z,7.26
2023-02-19T12:57:26.446Z,7.38
2023-02-19T12:59:58.955Z,7.46
2023-02-19T13:02:31.235Z,7.44
2023-02-19T13:04:58.956Z,7.59
2023-02-19T13:07:31.166Z,7.58
2023-02-19T13:10:04.304Z,7.75
2023-02-19T13:12:32.644Z,7.87
2023-02-19T13:15:02.771Z,7.86
2023-02-19T13:17:43.912Z,7.68
2023-02-19T13:20:20.245Z,7.53
2023-02-19T13:22:50.367Z,7.49
2023-02-19T13:25:16.803Z,7.45
2023-02-19T13:27:57.480Z,7.47
2023-02-19T13:30:32.723Z,7.34
2023-02-19T13:33:02.271Z,7.38
2023-02-19T13:35:40.710Z,7.39
2023-02-19T13:38:08.136Z,7.34
2023-02-19T13:40:35.529Z,7.28
2023-02-19T13:43:02.918Z,7.31
2023-02-19T13:45:39.188Z,7.29
2023-02-19T13:48:23.843Z,7.21
2023-02-19T13:50:52.489Z,7.48
2023-02-19T13:53:54.522Z,7.75
2023-02-19T13:56:41.248Z,7.83
2023-02-19T13:59:10.562Z,7.56
2023-02-19T14:01:55.590Z,7.39
2023-02-19T14:04:25.699Z,7.30
2023-02-19T14:07:04.534Z,7.23
2023-02-19T14:09:51.140Z,7.31
2023-02-19T14:12:17.520Z,7.60
2023-02-19T14:14:46.963Z,7.60
2023-02-19T14:17:30.606Z,7.86
2023-02-19T14:19:57.072Z,7.90
2023-02-19T14:22:42.058Z,8.06
2023-02-19T14:25:09.478Z,7.81
2023-02-19T14:27:37.046Z,7.81
2023-02-19T14:30:03.906Z,7.67
2023-02-19T14:32:30.297Z,7.61
2023-02-19T14:34:56.708Z,7.60
2023-02-19T14:37:23.124Z,7.59
2023-02-19T14:39:49.556Z,7.42
2023-02-19T14:42:16.825Z,7.23
2023-02-19T14:44:46.010Z,7.21
2023-02-19T14:47:16.942Z,7.23
2023-02-19T14:49:44.488Z,7.20
2023-02-19T14:52:23.192Z,7.10
2023-02-19T14:54:49.655Z,7.13
2023-02-19T14:57:20.604Z,7.32
2023-02-19T14:59:54.233Z,7.40
2023-02-19T15:02:20.661Z,7.44
2023-02-19T15:04:47.089Z,7.32
2023-02-19T15:07:14.703Z,7.37
2023-02-19T15:09:42.287Z,7.32
2023-02-19T15:12:13.381Z,7.28
2023-02-19T15:14:39.839Z,7.12
2023-02-19T15:17:06.397Z,7.08
2023-02-19T15:19:33.723Z,7.15
2023-02-19T15:22:00.257Z,7.10
2023-02-19T15:24:26.842Z,7.08
2023-02-19T15:26:53.471Z,7.02
2023-02-19T15:29:24.135Z,6.96
2023-02-19T15:31:51.471Z,6.95
2023-02-19T15:34:20.951Z,6.87
2023-02-19T15:36:47.943Z,6.87
2023-02-19T15:39:23.093Z,6.87
2023-02-19T15:42:00.301Z,6.93
2023-02-19T15:44:47.515Z,6.80
2023-02-19T15:47:15.547Z,6.80
2023-02-19T15:49:44.556Z,6.75
2023-02-19T15:52:11.397Z,6.71
2023-02-19T15:54:41.617Z,6.63
2023-02-19T15:57:08.832Z,6.67
2023-02-19T15:59:55.470Z,6.60
2023-02-19T16:02:22.075Z,6.52
2023-02-19T16:04:48.992Z,6.53
2023-02-19T16:07:31.112Z,6.49
2023-02-19T16:10:16.463Z,6.47
2023-02-19T16:12:42.983Z,6.50
2023-02-19T16:15:18.868Z,6.47
2023-02-19T16:17:45.285Z,6.36
2023-02-19T16:20:31.528Z,6.24
2023-02-19T16:22:59.262Z,6.20
2023-02-19T16:25:25.712Z,6.07
2023-02-19T16:27:52.188Z,6.04
2023-02-19T16:30:23.503Z,5.89
2023-02-19T16:32:49.992Z,5.70
2023-02-19T16:35:36.000Z,5.49
2023-02-19T16:38:02.542Z,5.45
2023-02-19T16:40:35.340Z,5.31
2023-02-19T16:43:04.818Z,5.27
2023-02-19T16:45:31.361Z,5.16
2023-02-19T16:47:57.934Z,5.14
2023-02-19T16:50:24.571Z,5.26
2023-02-19T16:52:54.363Z,5.18
2023-02-19T16:55:20.814Z,5.15
2023-02-19T16:57:47.521Z,5.05
2023-02-19T17:00:18.114Z,4.98
2023-02-19T17:02:46.012Z,5.03
2023-02-19T17:05:12.428Z,4.92
2023-02-19T17:07:38.778Z,4.95
2023-02-19T17:10:05.745Z,5.02
2023-02-19T17:12:32.247Z,5.00
2023-02-19T17:14:58.971Z,5.01
2023-02-19T17:17:25.532Z,4.93
2023-02-19T17:19:51.988Z,5.04
2023-02-19T17:22:18.431Z,4.99
2023-02-19T17:24:44.897Z,4.87
2023-02-19T17:27:11.817Z,4.89
2023-02-19T17:29:38.638Z,4.84
2023-02-19T17:32:06.327Z,4.89
2023-02-19T17:34:32.888Z,5.02
2023-02-19T17:36:59.326Z,5.01
2023-02-19T17:39:25.809Z,5.01
2023-02-19T17:41:52.189Z,4.94
2023-02-19T17:44:18.907Z,5.01
2023-02-19T17:46:46.252Z,4.92
2023-02-19T17:49:12.674Z,4.88
2023-02-19T17:51:39.107Z,4.79
2023-02-19T17:54:08.232Z,4.83
2023-02-19T17:56:35.060Z,4.91
2023-02-19T17:59:01.816Z,4.88
2023-02-19T18:01:28.305Z,4.83
2023-02-19T18:03:54.863Z,4.85
2023-02-19T18:06:21.357Z,4.82
2023-02-19T18:08:51.237Z,4.80
2023-02-19T18:11:17.766Z,4.74
2023-02-19T18:13:44.276Z,4.76
2023-02-19T18:16:11.056Z,4.78
2023-02-19T18:18:37.485Z,4.83
2023-02-19T18:21:04.308Z,4.71
2023-02-19T18:23:30.693Z,4.82
2023-02-19T18:25:57.073Z,4.85
2023-02-19T18:28:24.007Z,4.79
2023-02-19T18:30:50.591Z,4.75
2023-02-19T18:33:17.217Z,4.75
2023-02-19T18:35:43.624Z,4.73
2023-02-19T18:38:10.037Z,4.64
2023-02-19T18:40:36.496Z,4.62
2023-02-19T18:43:03.111Z,4.72
2023-02-19T18:45:29.637Z,4.71
2023-02-19T18:47:56.221Z,4.70
2023-02-19T18:50:22.688Z,4.74
2023-02-19T18:52:49.124Z,4.71
2023-02-19T18:55:15.591Z,4.73
2023-02-19T18:57:41.943Z,4.76
2023-02-19T19:00:09.470Z,4.80
2023-02-19T19:02:48.447Z,4.85
2023-02-19T19:05:18.838Z,4.87
2023-02-19T19:07:45.320Z,4.80
2023-02-19T19:10:11.807Z,4.87
2023-02-19T19:12:38.582Z,4.95
2023-02-19T19:15:05.187Z,4.88
2023-02-19T19:17:31.632Z,4.92
2023-02-19T19:19:58.113Z,4.92
2023-02-19T19:22:24.579Z,4.91
2023-02-19T19:24:51.103Z,4.97
2023-02-19T19:27:20.960Z,4.89
2023-02-19T19:29:47.644Z,4.85
2023-02-19T19:32:14.211Z,4.83
2023-02-19T19:34:41.163Z,4.91
2023-02-19T19:37:08.039Z,4.87
2023-02-19T19:39:34.460Z,4.83
2023-02-19T19:42:00.869Z,4.87
2023-02-19T19:44:27.393Z,4.82
2023-02-19T19:46:53.903Z,4.84
2023-02-19T19:49:20.515Z,4.93
2023-02-19T19:51:46.989Z,4.86
2023-02-19T19:54:13.670Z,4.96
2023-02-19T19:56:42.600Z,4.99
2023-02-19T19:59:10.027Z,4.92
2023-02-19T20:01:36.571Z,4.96
2023-02-19T20:04:02.978Z,4.97
2023-02-19T20:06:29.822Z,4.93
2023-02-19T20:08:56.307Z,4.92
2023-02-19T20:11:22.852Z,4.93
2023-02-19T20:13:49.282Z,4.88
2023-02-19T20:16:16.148Z,4.83
2023-02-19T20:18:42.668Z,4.84
2023-02-19T20:21:09.645Z,4.86
2023-02-19T20:23:37.971Z,4.86
2023-02-19T20:26:04.698Z,4.80
2023-02-19T20:28:31.301Z,4.77
2023-02-19T20:30:57.995Z,4.76
2023-02-19T20:33:24.486Z,4.80
2023-02-19T20:35:50.966Z,4.83
2023-02-19T20:38:17.459Z,4.78
2023-02-19T20:40:43.873Z,4.81
2023-02-19T20:43:10.279Z,4.89
2023-02-19T20:45:36.715Z,4.94
2023-02-19T20:48:03.231Z,4.90
2023-02-19T20:50:29.702Z,5.01
2023-02-19T20:52:56.097Z,5.06
2023-02-19T20:55:22.513Z,4.91
2023-02-19T20:57:48.944Z,4.92
2023-02-19T21:00:15.578Z,5.02
2023-02-19T21:02:42.504Z,5.02
2023-02-19T21:05:09.014Z,4.98
2023-02-19T21:07:35.780Z,5.08
2023-02-19T21:10:02.171Z,4.93
2023-02-19T21:12:28.643Z,4.91
2023-02-19T21:14:55.088Z,4.96
2023-02-19T21:17:21.636Z,4.87
2023-02-19T21:19:50.163Z,4.89
2023-02-19T21:22:16.873Z,4.90
2023-02-19T21:24:43.301Z,4.88
2023-02-19T21:27:09.747Z,4.85
2023-02-19T21:29:36.150Z,4.79
2023-02-19T21:32:02.752Z,4.84
2023-02-19T21:34:29.761Z,4.84
2023-02-19T21:36:56.237Z,4.84
2023-02-19T21:39:23.382Z,4.86
2023-02-19T21:41:49.781Z,4.78
2023-02-19T21:44:16.262Z,4.83
2023-02-19T21:46:42.796Z,4.83
2023-02-19T21:49:09.649Z,4.82
2023-02-19T21:51:36.873Z,4.79
2023-02-19T21:54:03.775Z,4.80
2023-02-19T21:56:31.030Z,4.78
2023-02-19T21:58:57.522Z,4.75
2023-02-19T22:01:24.401Z,4.67
2023-02-19T22:03:50.852Z,4.64
2023-02-19T22:06:17.482Z,4.65
2023-02-19T22:08:44.022Z,4.72
2023-02-19T22:11:10.424Z,4.71
2023-02-19T22:13:36.975Z,4.68
2023-02-19T22:16:03.475Z,4.79
2023-02-19T22:18:29.990Z,4.75
2023-02-19T22:20:56.520Z,4.77
2023-02-19T22:23:23.068Z,4.80
2023-02-19T22:25:49.549Z,4.83
2023-02-19T22:28:16.031Z,4.82
2023-02-19T22:30:42.491Z,4.85
2023-02-19T22:33:09.535Z,4.85
2023-02-19T22:35:35.901Z,4.83
2023-02-19T22:38:02.287Z,4.85
2023-02-19T22:40:28.770Z,4.93
2023-02-19T22:42:55.364Z,4.91
2023-02-19T22:45:21.791Z,4.86
2023-02-19T22:47:48.264Z,4.88
2023-02-19T22:50:18.120Z,4.88
2023-02-19T22:52:44.582Z,4.86
2023-02-19T22:55:11.191Z,4.85
2023-02-19T22:57:37.660Z,4.89
2023-02-19T23:00:04.995Z,4.87
2023-02-19T23:02:31.456Z,4.86
2023-02-19T23:04:57.906Z,4.88
2023-02-19T23:07:24.627Z,4.86
2023-02-19T23:09:51.077Z,4.86
2023-02-19T23:12:17.482Z,4.84
2023-02-19T23:14:45.671Z,4.95
2023-02-19T23:17:12.178Z,4.89
2023-02-19T23:19:38.670Z,4.88
2023-02-19T23:22:05.332Z,4.95
2023-02-19T23:24:31.930Z,4.87
2023-02-19T23:26:58.367Z,4.93
2023-02-19T23:29:25.373Z,4.89
2023-02-19T23:31:52.093Z,4.87
2023-02-19T23:34:18.665Z,4.90
2023-02-19T23:36:45.854Z,4.86
2023-02-19T23:39:12.742Z,4.87
2023-02-19T23:41:39.234Z,4.86
2023-02-19T23:44:05.847Z,4.88
2023-02-19T23:46:32.307Z,4.89
2023-02-19T23:48:58.652Z,4.91
2023-02-19T23:51:25.442Z,4.84
2023-02-19T23:53:51.915Z,4.89
2023-02-19T23:56:24.758Z,4.85
2023-02-19T23:58:51.210Z,4.84
